Time;durP1;ratioP1;P1;durP2;ratioP2;P2;SDS_P1;SDS_P2;PMS_P1;PMS_P2;Temp;Humidity;BMP_temperature;BMP_pressure;BME280_temperature;BME280_humidity;BME280_pressure;Samples;Min_cycle;Max_cycle;Signal;HPM_P1;HPM_P2
2022/05/12 00:01:49;;;;;;;6.40;5.80;;;;;;;17.77;56.00;99162.56;213642;1274;142098;-65
2022/05/12 00:06:52;;;;;;;6.10;5.50;;;;;;;17.73;56.25;99153.03;214183;1274;140552;-66
2022/05/12 00:11:56;;;;;;;7.70;6.90;;;;;;;17.70;56.33;99147.77;214060;1274;140435;-65
2022/05/12 00:16:58;;;;;;;8.00;7.20;;;;;;;17.67;56.23;99145.83;213943;1275;141697;-66
2022/05/12 00:22:01;;;;;;;8.00;6.20;;;;;;;17.64;56.32;99137.77;213762;1274;140972;-66
2022/05/12 00:27:04;;;;;;;7.80;7.00;;;;;;;17.61;56.39;99139.48;214379;1274;142791;-65
2022/05/12 00:32:08;;;;;;;8.10;7.10;;;;;;;17.58;56.56;99137.47;213738;1274;142086;-65
2022/05/12 00:37:10;;;;;;;9.30;6.40;;;;;;;17.55;56.48;99130.13;213858;1274;141298;-65
2022/05/12 00:42:13;;;;;;;7.20;6.60;;;;;;;17.52;56.54;99127.38;213469;1274;140776;-65
2022/05/12 00:47:17;;;;;;;9.80;7.40;;;;;;;17.46;56.55;99125.81;213464;1276;162932;-65
2022/05/12 00:52:26;;;;;;;8.80;7.90;;;;;;;17.39;56.82;99118.65;213476;1276;141706;-65
2022/05/12 00:57:34;;;;;;;7.20;6.60;;;;;;;17.34;56.73;99119.40;214025;1274;140466;-66
2022/05/12 01:02:41;;;;;;;9.00;5.40;;;;;;;17.30;56.82;99116.45;213375;1274;143136;-65
2022/05/12 01:07:45;;;;;;;8.70;7.80;;;;;;;17.25;56.98;99108.54;213869;1274;140851;-66
2022/05/12 01:12:49;;;;;;;8.30;6.20;;;;;;;17.22;57.10;99105.07;214026;1274;141476;-66
2022/05/12 01:18:10;;;;;;;8.00;6.00;;;;;;;17.20;57.15;99102.79;213298;1274;142401;-66
2022/05/12 01:23:20;;;;;;;7.00;6.30;;;;;;;17.18;57.19;99100.73;214073;1274;161181;-66
2022/05/12 01:28:22;;;;;;;6.20;5.70;;;;;;;17.16;57.15;99102.58;213332;1274;140728;-65
2022/05/12 01:33:25;;;;;;;10.80;6.70;;;;;;;17.13;57.12;99094.16;214099;1274;140707;-66
2022/05/12 01:38:28;;;;;;;7.80;6.10;;;;;;;17.12;57.19;99092.37;213694;1274;141461;-65
2022/05/12 01:43:32;;;;;;;6.80;6.00;;;;;;;17.08;57.35;99087.38;213522;1274;140547;-65
2022/05/12 01:48:35;;;;;;;5.40;4.90;;;;;;;17.03;57.30;99086.63;213782;1274;143026;-64
2022/05/12 01:53:38;;;;;;;8.40;6.10;;;;;;;17.00;57.31;99083.19;213738;1274;141647;-66
2022/05/12 01:58:42;;;;;;;8.80;5.60;;;;;;;16.98;57.37;99081.05;213596;1274;142893;-65
2022/05/12 02:03:45;;;;;;;8.50;6.10;;;;;;;16.97;57.38;99079.62;213855;1274;141556;-65
2022/05/12 02:08:48;;;;;;;5.70;5.20;;;;;;;16.94;57.48;99073.95;213608;1274;141030;-64
2022/05/12 02:13:52;;;;;;;6.90;6.20;;;;;;;16.90;57.41;99069.75;213570;1274;140952;-65
2022/05/12 02:18:55;;;;;;;24.60;6.50;;;;;;;16.88;57.53;99063.85;213755;1276;143903;-64
2022/05/12 02:23:58;;;;;;;7.70;5.90;;;;;;;16.86;57.50;99063.02;213779;1276;142895;-63
2022/05/12 02:29:01;;;;;;;7.70;6.00;;;;;;;16.84;57.43;99060.73;213638;1274;161585;-65
2022/05/12 02:34:04;;;;;;;5.80;5.20;;;;;;;16.82;57.58;99065.13;214116;1274;141275;-65
2022/05/12 02:39:06;;;;;;;6.10;5.50;;;;;;;16.81;57.59;99058.90;213766;1274;141923;-64
2022/05/12 02:44:09;;;;;;;8.00;5.70;;;;;;;16.81;57.71;99053.69;214011;1274;141435;-65
2022/05/12 02:49:15;;;;;;;6.40;5.60;;;;;;;16.79;57.62;99052.33;213761;1274;140448;-65
2022/05/12 02:54:20;;;;;;;7.80;6.00;;;;;;;16.77;57.61;99049.23;213524;1275;143137;-64
2022/05/12 02:59:23;;;;;;;7.70;6.00;;;;;;;16.76;57.66;99048.34;214340;1274;144814;-62
2022/05/12 03:04:26;;;;;;;5.90;5.30;;;;;;;16.74;57.72;99046.31;214220;1274;220862;-64
2022/05/12 03:09:29;;;;;;;9.80;4.90;;;;;;;16.73;57.76;99051.77;214038;1274;152548;-66
2022/05/12 03:14:31;;;;;;;6.20;5.70;;;;;;;16.71;57.78;99050.56;213565;1275;141548;-65
2022/05/12 03:19:33;;;;;;;7.40;6.20;;;;;;;16.72;57.90;99051.79;214097;1274;141555;-65
2022/05/12 03:24:36;;;;;;;4.20;3.90;;;;;;;16.76;57.90;99048.02;213598;1274;141104;-64
2022/05/12 03:29:39;;;;;;;6.10;5.40;;;;;;;16.85;57.85;99039.52;214541;1274;140320;-64
2022/05/12 03:34:43;;;;;;;6.80;4.80;;;;;;;16.99;57.80;99037.64;213546;1274;140533;-65
2022/05/12 03:39:47;;;;;;;6.60;5.40;;;;;;;17.11;57.77;99038.85;213749;1274;141089;-65
2022/05/12 03:44:50;;;;;;;6.40;5.70;;;;;;;17.32;57.54;99032.93;214089;1274;140963;-65
2022/05/12 03:50:03;;;;;;;7.70;5.30;;;;;;;17.62;57.27;99031.72;213969;1274;141537;-65
2022/05/12 03:55:08;;;;;;;5.60;5.10;;;;;;;17.84;56.95;99029.42;213570;1274;141082;-66
2022/05/12 04:00:18;;;;;;;6.70;5.60;;;;;;;18.03;56.65;99028.78;213723;1274;140674;-64
2022/05/12 04:05:22;;;;;;;7.50;4.90;;;;;;;18.32;56.21;99031.84;213566;1274;142299;-65
2022/05/12 04:10:27;;;;;;;6.30;4.90;;;;;;;18.77;55.59;99027.31;213436;1275;140897;-66
2022/05/12 04:15:30;;;;;;;5.40;4.90;;;;;;;19.67;54.66;99023.02;213372;1273;143203;-65
2022/05/12 04:20:35;;;;;;;13.20;5.50;;;;;;;20.64;53.31;99021.21;213727;1274;142588;-65
2022/05/12 04:25:37;;;;;;;6.90;5.70;;;;;;;20.97;52.53;99018.70;213548;1275;140995;-65
2022/05/12 04:30:41;;;;;;;9.30;5.70;;;;;;;20.93;52.01;99016.57;213554;1275;141350;-64
2022/05/12 04:35:43;;;;;;;5.40;4.30;;;;;;;20.82;51.73;99020.68;213470;1276;140542;-64
2022/05/12 04:40:51;;;;;;;5.80;5.30;;;;;;;20.73;51.69;99022.89;213402;1276;140915;-65
2022/05/12 04:45:55;;;;;;;7.30;5.00;;;;;;;21.10;51.17;99019.03;213785;1274;142617;-65
2022/05/12 04:51:00;;;;;;;5.30;4.50;;;;;;;21.25;50.86;99013.64;213752;1274;210382;-65
2022/05/12 04:56:03;;;;;;;5.90;5.30;;;;;;;21.30;50.55;99012.45;213969;1274;140698;-65
2022/05/12 05:01:07;;;;;;;9.40;4.70;;;;;;;21.09;50.52;99010.88;214271;1274;140494;-65
2022/05/12 05:06:11;;;;;;;4.90;4.50;;;;;;;20.97;50.74;99010.80;213887;1274;141396;-63
2022/05/12 05:11:13;;;;;;;5.30;4.50;;;;;;;22.19;49.21;99015.00;214261;1274;165269;-65
2022/05/12 05:16:17;;;;;;;5.10;3.70;;;;;;;26.14;45.08;99017.59;213314;1274;141686;-64
2022/05/12 05:21:20;;;;;;;10.80;4.40;;;;;;;29.75;41.30;99020.92;213885;1274;141111;-64
2022/05/12 05:26:23;;;;;;;6.00;4.30;;;;;;;32.39;37.95;99032.20;213507;1274;232785;-64
2022/05/12 05:31:26;;;;;;;3.60;3.20;;;;;;;34.49;35.11;99040.04;213172;1276;145097;-63
2022/05/12 05:36:30;;;;;;;2.80;2.70;;;;;;;36.01;32.42;99037.01;213385;1275;140388;-63
2022/05/12 05:41:35;;;;;;;2.80;2.70;;;;;;;37.40;30.64;99037.73;213509;1276;163465;-64
2022/05/12 05:46:40;;;;;;;2.50;2.30;;;;;;;38.28;28.46;99038.95;213570;1274;140802;-62
2022/05/12 05:57:04;;;;;;;3.20;2.80;;;;;;;38.12;27.00;99044.77;213474;1275;140820;-63
2022/05/12 06:02:07;;;;;;;3.20;2.00;;;;;;;37.59;26.94;99054.52;213372;1276;141710;-63
2022/05/12 06:07:11;;;;;;;1.90;1.90;;;;;;;35.67;27.37;99059.16;213864;1274;141553;-62
2022/05/12 06:12:15;;;;;;;;;;;;;;;34.39;27.53;99060.70;213622;1274;141151;-64
2022/05/12 06:17:18;;;;;;;6.50;3.00;;;;;;;33.78;28.23;99066.20;214460;1275;128292;-65
2022/05/12 06:22:21;;;;;;;;;;;;;;;32.77;28.66;99075.51;214189;1274;141841;-64
2022/05/12 06:27:24;;;;;;;2.70;2.00;;;;;;;31.20;29.31;99071.99;214662;1274;126465;-63
2022/05/12 06:32:27;;;;;;;10.70;3.20;;;;;;;30.08;30.09;99068.44;214092;1274;140262;-65
2022/05/12 06:37:30;;;;;;;12.50;3.20;;;;;;;29.28;31.52;99062.65;213401;1274;141988;-62
2022/05/12 06:42:35;;;;;;;6.00;3.30;;;;;;;28.64;32.30;99073.21;213276;1276;140182;-62
2022/05/12 06:47:46;;;;;;;16.20;4.30;;;;;;;28.47;32.37;99084.63;214261;1274;139970;-61
2022/05/12 06:52:50;;;;;;;11.50;3.70;;;;;;;28.21;32.76;99097.86;213675;1275;139358;-61
2022/05/12 06:57:55;;;;;;;7.50;3.20;;;;;;;28.18;33.06;99104.92;213699;1274;140711;-62
2022/05/12 07:02:58;;;;;;;7.30;4.70;;;;;;;28.88;33.03;99111.23;213583;1275;142568;-60
2022/05/12 07:08:02;;;;;;;11.00;4.60;;;;;;;29.09;33.04;99125.17;213393;1274;141088;-62
2022/05/12 07:13:05;;;;;;;11.20;4.90;;;;;;;29.71;32.53;99135.30;213621;1275;139884;-61
2022/05/12 07:18:08;;;;;;;5.90;3.70;;;;;;;30.15;32.92;99141.95;213436;1274;140902;-63
2022/05/12 07:28:36;;;;;;;4.20;3.40;;;;;;;29.71;32.41;99170.33;213705;1274;140707;-63
2022/05/12 07:33:46;;;;;;;7.60;4.70;;;;;;;29.17;32.53;99180.23;214605;1274;139624;-64
2022/05/12 07:38:50;;;;;;;11.60;4.50;;;;;;;28.76;33.31;99192.98;214142;1274;140475;-62
2022/05/12 07:43:54;;;;;;;11.10;5.20;;;;;;;28.63;33.99;99195.42;214566;1274;222148;-62
2022/05/12 07:48:58;;;;;;;8.10;4.80;;;;;;;28.47;34.55;99228.45;213033;1274;663913;-64
2022/05/12 07:54:01;;;;;;;5.40;4.40;;;;;;;27.60;34.67;99240.21;213442;1274;140783;-62
2022/05/12 07:59:04;;;;;;;9.80;5.10;;;;;;;27.02;35.95;99256.88;213592;1274;141184;-61
2022/05/12 08:04:08;;;;;;;6.80;4.40;;;;;;;26.99;36.94;99266.02;213678;1274;140445;-63
2022/05/12 08:09:11;;;;;;;12.50;5.20;;;;;;;27.28;37.13;99283.52;213671;1274;141294;-63
2022/05/12 08:14:15;;;;;;;8.70;4.80;;;;;;;27.57;36.98;99284.69;213930;1274;140535;-62
2022/05/12 08:19:18;;;;;;;7.10;4.20;;;;;;;27.75;36.96;99298.88;213512;1274;139973;-62
2022/05/12 08:24:20;;;;;;;7.10;4.40;;;;;;;27.53;37.04;99313.86;213990;1274;140800;-62
2022/05/12 08:29:23;;;;;;;2.90;2.70;;;;;;;27.48;37.35;99330.02;213891;1274;141492;-62
2022/05/12 08:34:28;;;;;;;8.20;4.20;;;;;;;27.08;37.02;99346.35;213531;1273;141843;-61
2022/05/12 08:39:31;;;;;;;5.20;2.20;;;;;;;26.89;37.34;99359.06;214119;1274;140607;-61
2022/05/12 08:44:39;;;;;;;7.30;3.20;;;;;;;26.30;37.37;99360.45;214214;1274;140930;-61
2022/05/12 08:49:45;;;;;;;7.50;3.20;;;;;;;25.69;38.03;99350.81;213555;1274;141427;-62
2022/05/12 08:55:05;;;;;;;4.30;2.80;;;;;;;25.36;38.69;99357.88;213493;1274;141548;-62
2022/05/12 09:00:15;;;;;;;6.00;2.50;;;;;;;25.52;39.07;99356.66;213445;1274;140704;-63
2022/05/12 09:05:25;;;;;;;1.50;1.40;;;;;;;25.57;38.14;99378.34;213760;1274;141379;-64
2022/05/12 09:10:37;;;;;;;3.30;1.50;;;;;;;25.26;37.45;99392.09;214073;1274;140608;-64
2022/05/12 09:16:26;;;;;;;3.60;2.30;;;;;;;24.75;37.80;99397.58;214223;1274;140604;-63
2022/05/12 09:21:36;;;;;;;12.40;2.10;;;;;;;24.81;38.49;99404.64;214425;1274;151801;-62
2022/05/12 09:26:46;;;;;;;10.40;1.70;;;;;;;24.69;37.64;99419.95;213792;1274;140043;-62
2022/05/12 09:32:03;;;;;;;7.90;2.10;;;;;;;24.41;37.56;99433.55;214316;1274;139921;-62
2022/05/12 09:37:21;;;;;;;6.30;2.00;;;;;;;24.19;37.74;99440.56;213842;1274;141018;-63
2022/05/12 09:42:29;;;;;;;4.30;2.10;;;;;;;23.96;38.59;99448.84;213908;1274;141558;-63
2022/05/12 09:47:34;;;;;;;6.90;1.60;;;;;;;23.58;38.46;99461.96;213475;1274;140734;-63
2022/05/12 09:52:39;;;;;;;2.60;1.60;;;;;;;23.37;39.31;99471.66;213727;1274;141677;-62
2022/05/12 09:58:06;;;;;;;6.20;1.40;;;;;;;23.99;39.67;99469.81;214055;1275;142406;-62
2022/05/12 10:08:44;;;;;;;1.60;1.40;;;;;;;24.24;38.29;99483.69;213429;1275;140065;-62
2022/05/12 10:13:57;;;;;;;6.00;1.90;;;;;;;23.92;38.67;99493.95;213546;1275;143787;-62
2022/05/12 10:19:10;;;;;;;6.90;1.90;;;;;;;23.67;38.95;99494.04;214371;1274;140016;-62
2022/05/12 10:24:25;;;;;;;10.90;1.40;;;;;;;23.50;38.62;99495.98;213526;1274;152654;-62
2022/05/12 10:30:13;;;;;;;7.00;1.40;;;;;;;23.93;39.14;99503.16;214229;1274;140623;-60
2022/05/12 10:36:04;;;;;;;4.80;1.50;;;;;;;24.07;38.98;99520.38;213324;1281;141101;-63
2022/05/12 10:41:29;;;;;;;4.40;1.20;;;;;;;23.58;38.94;99539.23;213859;1274;139716;-62
2022/05/12 10:46:54;;;;;;;5.90;1.80;;;;;;;23.40;39.44;99540.77;214259;1274;139679;-63
2022/05/12 10:52:24;;;;;;;6.20;1.50;;;;;;;23.67;38.84;99541.23;214261;1274;140957;-64
2022/05/12 10:57:56;;;;;;;17.40;2.70;;;;;;;23.47;38.05;99550.59;213656;1274;140160;-63
2022/05/12 11:03:09;;;;;;;14.70;2.40;;;;;;;23.09;36.92;99562.67;214037;1274;140742;-64
2022/05/12 11:08:23;;;;;;;11.60;2.90;;;;;;;23.02;36.80;99564.71;213517;1274;140892;-63
2022/05/12 11:13:41;;;;;;;8.90;1.80;;;;;;;23.51;36.50;99561.38;213899;1274;142393;-63
2022/05/12 11:19:23;;;;;;;11.80;2.00;;;;;;;23.78;35.29;99557.97;213458;1274;141677;-64
2022/05/12 11:24:32;;;;;;;2.90;1.60;;;;;;;23.78;34.21;99558.65;212998;1274;141288;-64
2022/05/12 11:30:17;;;;;;;10.70;1.90;;;;;;;23.79;33.48;99566.09;213440;1274;140750;-65
2022/05/12 11:35:21;;;;;;;2.80;1.30;;;;;;;23.65;32.26;99570.16;213444;1274;140571;-67
2022/05/12 11:40:48;;;;;;;21.30;2.60;;;;;;;23.94;32.08;99576.95;213431;1274;140534;-65
2022/05/12 11:46:20;;;;;;;5.40;2.00;;;;;;;23.87;32.04;99589.25;213899;1274;145119;-66
2022/05/12 11:51:41;;;;;;;18.10;1.90;;;;;;;23.97;32.16;99592.02;214089;1274;140404;-66
2022/05/12 11:56:43;;;;;;;12.70;2.00;;;;;;;23.98;31.82;99596.79;213513;1274;140712;-66
2022/05/12 12:01:54;;;;;;;6.60;1.80;;;;;;;23.80;32.20;99605.55;215844;1274;140142;-65
2022/05/12 12:06:56;;;;;;;10.50;2.40;;;;;;;23.80;31.83;99609.20;216002;1274;140419;-66
2022/05/12 12:11:59;;;;;;;7.90;1.60;;;;;;;23.89;31.45;99618.98;216017;1274;139865;-66
2022/05/12 12:17:10;;;;;;;6.90;2.10;;;;;;;23.99;31.09;99615.10;215191;1274;140385;-66
2022/05/12 12:22:37;;;;;;;7.30;1.20;;;;;;;24.02;30.98;99615.61;215976;1274;140595;-65
2022/05/12 12:27:43;;;;;;;10.60;1.80;;;;;;;24.11;30.69;99618.71;215468;1274;141702;-64
2022/05/12 12:33:08;;;;;;;8.60;1.20;;;;;;;24.26;30.69;99609.20;212982;1274;140790;-64
2022/05/12 12:38:49;;;;;;;5.00;1.40;;;;;;;24.45;30.52;99619.81;213568;1274;140723;-63
2022/05/12 12:44:18;;;;;;;3.90;1.10;;;;;;;24.72;30.41;99618.48;213667;1274;140401;-64
2022/05/12 12:49:24;;;;;;;14.30;1.80;;;;;;;24.86;30.35;99619.95;214435;1274;139896;-64
2022/05/12 13:00:04;;;;;;;17.90;2.10;;;;;;;24.25;31.43;99627.23;214412;1274;142712;-66
2022/05/12 13:05:29;;;;;;;6.30;1.30;;;;;;;23.95;32.18;99628.70;213413;1274;139747;-63
2022/05/12 13:10:44;;;;;;;2.90;1.20;;;;;;;23.89;32.47;99642.52;214811;1274;140060;-64
2022/05/12 13:15:57;;;;;;;4.80;1.80;;;;;;;23.52;32.84;99645.87;214188;1274;141770;-63
2022/05/12 13:21:05;;;;;;;4.50;1.20;;;;;;;23.58;33.05;99645.80;215902;1274;141828;-64
2022/05/12 13:26:09;;;;;;;7.40;2.00;;;;;;;23.50;33.43;99656.28;217194;1274;139869;-66
2022/05/12 13:31:24;;;;;;;7.00;1.50;;;;;;;23.54;33.44;99660.85;214245;1274;139676;-64
2022/05/12 13:36:44;;;;;;;5.90;1.30;;;;;;;23.72;34.12;99658.40;214201;1274;140166;-65
2022/05/12 13:41:49;;;;;;;3.60;1.10;;;;;;;23.85;34.11;99658.39;214541;1274;140449;-64
2022/05/12 13:46:59;;;;;;;3.90;1.20;;;;;;;23.80;33.30;99663.64;213430;1274;140434;-63
2022/05/12 13:52:15;;;;;;;2.50;1.50;;;;;;;23.72;33.34;99674.95;215920;1274;140961;-64
2022/05/12 13:57:21;;;;;;;6.40;1.30;;;;;;;23.66;33.48;99684.27;215334;1274;139178;-63
2022/05/12 14:02:38;;;;;;;1.40;0.70;;;;;;;23.52;33.73;99689.63;215847;1274;139879;-63
2022/05/12 14:07:43;;;;;;;2.20;1.10;;;;;;;23.33;33.95;99685.82;215568;1274;151245;-63
2022/05/12 14:23:33;;;;;;;1.50;1.00;;;;;;;22.88;34.83;99700.91;214358;1274;140990;-63
2022/05/12 14:28:35;;;;;;;12.00;1.00;;;;;;;23.02;34.78;99693.46;213323;1274;140164;-64
2022/05/12 14:33:38;;;;;;;1.10;1.00;;;;;;;22.90;34.35;99696.96;215188;1274;141278;-62
2022/05/12 14:38:42;;;;;;;8.20;1.30;;;;;;;22.83;34.03;99701.54;214906;1274;142566;-62
2022/05/12 14:43:45;;;;;;;7.60;0.90;;;;;;;23.00;33.56;99704.05;213590;1274;140221;-63
2022/05/12 14:48:51;;;;;;;3.70;0.80;;;;;;;23.00;33.39;99700.60;213149;1272;140955;-63
2022/05/12 14:53:54;;;;;;;1.80;0.90;;;;;;;22.96;33.33;99698.33;214047;1274;139863;-63
2022/05/12 14:59:00;;;;;;;3.50;1.10;;;;;;;22.66;33.19;99701.17;213320;1274;139837;-64
2022/05/12 15:04:06;;;;;;;3.50;0.90;;;;;;;22.60;33.09;99705.71;214303;1274;139874;-64
2022/05/12 15:09:14;;;;;;;2.50;1.00;;;;;;;22.65;32.97;99705.16;213036;1275;204630;-64
2022/05/12 15:14:16;;;;;;;4.20;0.90;;;;;;;22.78;33.07;99707.71;213596;1274;139779;-63
2022/05/12 15:19:22;;;;;;;4.10;0.70;;;;;;;22.67;33.08;99712.62;215227;1274;140124;-64
2022/05/12 15:24:24;;;;;;;1.90;0.60;;;;;;;22.67;33.57;99714.41;212907;1274;142490;-62
2022/05/12 15:29:28;;;;;;;9.00;1.60;;;;;;;22.72;33.67;99717.42;213325;1274;143195;-63
2022/05/12 15:34:31;;;;;;;1.50;1.40;;;;;;;22.67;34.19;99713.07;213635;1274;141647;-64
2022/05/12 15:39:35;;;;;;;4.00;0.80;;;;;;;22.23;34.17;99712.56;214581;1274;141519;-62
2022/05/12 15:44:44;;;;;;;1.00;1.00;;;;;;;21.96;34.67;99714.90;214167;1274;140574;-64
2022/05/12 15:49:47;;;;;;;4.40;1.30;;;;;;;21.78;34.92;99714.97;214781;1276;140927;-64
2022/05/12 15:54:50;;;;;;;2.70;1.00;;;;;;;21.63;35.27;99722.95;214483;1276;141727;-66
2022/05/12 15:59:53;;;;;;;4.40;1.10;;;;;;;21.47;35.47;99721.67;215958;1274;142051;-64
2022/05/12 16:04:57;;;;;;;3.60;1.30;;;;;;;21.37;35.84;99722.90;216027;1274;140482;-63
2022/05/12 16:10:03;;;;;;;1.60;1.00;;;;;;;21.27;36.18;99721.72;215856;1274;141295;-63
2022/05/12 16:15:26;;;;;;;8.60;1.20;;;;;;;21.26;36.45;99722.22;215520;1274;139990;-62
2022/05/12 16:20:33;;;;;;;4.70;1.40;;;;;;;21.14;36.63;99726.52;215960;1274;140770;-63
2022/05/12 16:25:50;;;;;;;2.70;1.10;;;;;;;21.14;36.84;99729.26;215466;1274;140132;-63
2022/05/12 16:30:56;;;;;;;2.90;1.10;;;;;;;21.14;36.95;99734.30;215081;1273;141256;-63
2022/05/12 16:36:01;;;;;;;2.20;1.00;;;;;;;20.89;36.87;99732.65;214608;1274;140645;-64
2022/05/12 16:41:06;;;;;;;4.80;1.30;;;;;;;20.63;37.39;99738.54;213769;1274;142648;-63
2022/05/12 16:46:13;;;;;;;2.20;1.10;;;;;;;20.42;37.45;99740.55;213383;1274;140791;-63
2022/05/12 16:51:17;;;;;;;5.10;0.90;;;;;;;20.34;37.69;99747.02;214141;1274;140872;-64
2022/05/12 16:56:20;;;;;;;2.40;1.10;;;;;;;20.28;38.06;99750.96;213090;1273;140280;-63
2022/05/12 17:01:23;;;;;;;3.10;1.80;;;;;;;20.25;38.09;99750.04;213973;1274;140526;-64
2022/05/12 17:06:27;;;;;;;2.50;1.10;;;;;;;20.04;38.08;99752.58;213582;1274;140328;-64
2022/05/12 17:11:31;;;;;;;5.50;2.50;;;;;;;19.83;38.11;99752.60;214045;1274;141436;-63
2022/05/12 17:16:36;;;;;;;5.40;2.10;;;;;;;19.73;38.49;99757.73;213985;1274;140901;-65
2022/05/12 17:21:40;;;;;;;3.10;1.30;;;;;;;19.60;38.59;99755.28;213569;1274;141373;-64
2022/05/12 17:26:43;;;;;;;1.00;0.40;;;;;;;19.46;38.53;99757.05;214371;1274;140349;-64
2022/05/12 17:31:47;;;;;;;0.80;0.60;;;;;;;19.34;38.80;99762.02;214619;1274;140102;-63
2022/05/12 17:36:51;;;;;;;8.90;0.90;;;;;;;19.21;38.86;99763.77;214628;1274;140566;-63
2022/05/12 17:42:04;;;;;;;1.90;1.10;;;;;;;19.04;39.14;99763.05;214001;1274;140752;-65
2022/05/12 17:47:09;;;;;;;3.80;0.90;;;;;;;18.91;39.60;99763.78;213761;1274;140792;-62
2022/05/12 17:52:13;;;;;;;1.70;0.80;;;;;;;18.81;39.73;99767.89;214793;1274;140754;-63
2022/05/12 17:57:16;;;;;;;5.80;1.10;;;;;;;18.66;40.06;99774.21;215850;1274;142481;-64
2022/05/12 18:02:19;;;;;;;2.60;1.00;;;;;;;18.51;40.40;99778.34;215944;1274;151811;-63
2022/05/12 18:07:25;;;;;;;2.90;1.40;;;;;;;18.34;40.70;99785.36;215954;1274;141103;-63
2022/05/12 18:12:28;;;;;;;6.40;1.10;;;;;;;18.18;40.78;99796.30;215694;1274;141308;-63
2022/05/12 18:17:32;;;;;;;1.00;0.90;;;;;;;18.01;40.83;99798.81;215434;1274;141758;-63
2022/05/12 18:22:34;;;;;;;1.90;0.80;;;;;;;17.84;41.06;99805.41;214506;1274;140905;-62
2022/05/12 18:27:37;;;;;;;8.70;0.90;;;;;;;17.66;41.31;99810.17;214885;1274;154779;-61
2022/05/12 18:32:40;;;;;;;0.80;0.60;;;;;;;17.48;41.54;99822.42;214211;1274;140524;-63
2022/05/12 18:37:43;;;;;;;0.70;0.70;;;;;;;17.30;41.73;99829.70;214578;1274;140276;-63
2022/05/12 18:42:46;;;;;;;1.30;0.90;;;;;;;17.10;41.78;99833.23;213885;1274;140674;-63
2022/05/12 18:47:49;;;;;;;3.90;1.30;;;;;;;16.90;42.06;99837.27;214644;1274;140575;-63
2022/05/12 18:52:53;;;;;;;8.80;1.30;;;;;;;16.74;42.17;99839.21;214451;1275;141047;-62
2022/05/12 18:57:55;;;;;;;3.10;1.40;;;;;;;16.55;42.40;99847.48;213949;1274;141475;-63
2022/05/12 19:02:58;;;;;;;10.20;1.90;;;;;;;16.31;43.03;99856.33;213834;1274;141609;-64
2022/05/12 19:08:02;;;;;;;3.80;1.30;;;;;;;16.10;43.64;99864.23;213640;1274;141103;-64
2022/05/12 19:13:06;;;;;;;3.30;1.70;;;;;;;15.88;44.51;99863.08;214131;1273;142338;-64
2022/05/12 19:18:12;;;;;;;1.80;1.50;;;;;;;15.62;44.90;99869.08;213296;1274;142762;-62
2022/05/12 19:23:20;;;;;;;3.90;2.30;;;;;;;15.35;45.68;99866.06;213655;1274;140932;-62
2022/05/12 19:28:26;;;;;;;2.90;1.60;;;;;;;15.08;46.47;99869.86;214016;1274;140798;-63
2022/05/12 19:33:32;;;;;;;2.50;1.70;;;;;;;14.78;47.05;99868.23;213738;1274;152250;-63
2022/05/12 19:38:35;;;;;;;2.80;1.70;;;;;;;14.49;47.84;99875.11;214705;1274;140895;-65
2022/05/12 19:43:41;;;;;;;4.10;2.10;;;;;;;14.12;48.43;99879.17;213907;1274;140778;-64
2022/05/12 19:48:44;;;;;;;5.10;2.60;;;;;;;13.72;48.65;99881.45;214051;1274;284877;-63
2022/05/12 19:53:47;;;;;;;2.50;1.60;;;;;;;13.42;49.48;99885.61;215281;1274;141604;-64
2022/05/12 19:58:57;;;;;;;3.30;1.70;;;;;;;13.13;49.98;99881.76;215470;1274;140840;-64
2022/05/12 20:04:02;;;;;;;7.10;2.50;;;;;;;12.81;50.58;99880.87;215973;1274;140680;-65
2022/05/12 20:09:09;;;;;;;3.60;1.80;;;;;;;12.56;50.99;99881.77;215955;1274;139620;-65
2022/05/12 20:14:13;;;;;;;6.30;2.70;;;;;;;12.31;51.72;99887.90;216051;1274;141269;-65
2022/05/12 20:19:17;;;;;;;3.10;1.60;;;;;;;12.07;52.54;99883.64;215957;1274;140660;-65
2022/05/12 20:24:19;;;;;;;8.10;2.60;;;;;;;11.99;53.28;99887.40;214608;1274;140809;-63
2022/05/12 20:29:22;;;;;;;5.50;2.10;;;;;;;11.92;53.42;99884.76;215143;1274;140909;-65
2022/05/12 20:34:26;;;;;;;4.90;2.40;;;;;;;11.72;53.55;99890.14;215588;1276;141650;-64
2022/05/12 20:39:30;;;;;;;2.80;1.60;;;;;;;11.59;54.56;99892.56;214219;1274;140413;-64
2022/05/12 20:44:34;;;;;;;6.80;2.40;;;;;;;11.55;55.13;99889.53;214476;1274;141650;-63
2022/05/12 20:49:37;;;;;;;5.90;2.90;;;;;;;11.44;55.05;99885.89;214746;1274;140646;-64
2022/05/12 20:54:40;;;;;;;2.90;1.90;;;;;;;11.12;55.65;99887.38;213003;1276;141578;-64
2022/05/12 20:59:44;;;;;;;3.90;2.40;;;;;;;10.77;56.50;99891.27;214559;1276;141902;-64
2022/05/12 21:04:48;;;;;;;4.00;2.40;;;;;;;10.54;57.03;99894.11;213324;1274;141184;-63
2022/05/12 21:09:53;;;;;;;3.10;1.90;;;;;;;10.31;57.53;99904.96;213899;1274;140593;-63
2022/05/12 21:14:56;;;;;;;2.30;2.10;;;;;;;10.00;58.15;99910.48;213821;1274;139784;-63
2022/05/12 21:20:00;;;;;;;6.20;2.60;;;;;;;9.79;58.65;99913.33;214019;1274;161185;-64
2022/05/12 21:25:03;;;;;;;2.80;2.60;;;;;;;9.69;59.03;99912.52;213414;1275;142294;-59
2022/05/12 21:30:07;;;;;;;4.30;2.20;;;;;;;9.55;58.89;99916.56;213447;1276;140967;-64
2022/05/12 21:35:12;;;;;;;4.80;3.10;;;;;;;9.45;59.69;99921.45;214496;1274;140132;-63
2022/05/12 21:40:15;;;;;;;3.30;3.00;;;;;;;9.36;59.87;99928.42;213613;1274;140192;-62
2022/05/12 21:50:44;;;;;;;3.60;2.70;;;;;;;9.22;61.06;99933.15;214223;1275;140815;-61
2022/05/12 21:55:53;;;;;;;4.60;2.80;;;;;;;9.19;61.09;99938.66;215259;1276;140863;-65
2022/05/12 22:06:26;;;;;;;5.10;3.00;;;;;;;9.07;61.41;99944.33;215910;1274;139729;-64
2022/05/12 22:16:52;;;;;;;5.00;2.80;;;;;;;8.75;62.29;99957.24;215863;1274;139798;-62
2022/05/12 22:21:55;;;;;;;5.00;2.70;;;;;;;8.72;62.71;99954.21;215319;1274;140335;-63
2022/05/12 22:26:58;;;;;;;8.70;4.20;;;;;;;8.70;63.12;99960.76;215574;1275;139743;-63
2022/05/12 22:32:01;;;;;;;6.40;4.50;;;;;;;8.76;63.41;99959.50;214661;1276;139969;-63
2022/05/12 22:37:06;;;;;;;7.80;3.80;;;;;;;8.87;63.74;99953.78;214472;1274;140242;-63
2022/05/12 22:42:10;;;;;;;3.70;3.40;;;;;;;8.90;63.53;99948.39;215139;1274;140607;-65
2022/05/12 22:47:13;;;;;;;11.20;5.30;;;;;;;8.98;63.99;99957.61;214338;1274;140710;-64
2022/05/12 22:52:16;;;;;;;8.40;4.10;;;;;;;9.00;64.14;99956.29;214363;1274;139855;-63
2022/05/12 22:57:19;;;;;;;6.40;5.10;;;;;;;8.95;64.41;99963.48;213435;1275;139479;-63
2022/05/12 23:02:22;;;;;;;7.80;5.50;;;;;;;8.92;64.76;99960.36;213968;1274;139977;-63
2022/05/12 23:07:26;;;;;;;13.30;6.50;;;;;;;8.88;65.07;99959.62;213910;1275;140164;-64
2022/05/12 23:12:28;;;;;;;11.20;6.30;;;;;;;8.87;65.46;99951.08;213126;1274;140139;-63
2022/05/12 23:17:32;;;;;;;13.30;6.30;;;;;;;8.93;65.69;99953.98;214555;1276;141384;-63
2022/05/12 23:22:38;;;;;;;11.00;6.40;;;;;;;8.93;65.48;99948.12;214070;1276;140698;-64
2022/05/12 23:27:42;;;;;;;14.10;6.80;;;;;;;9.04;65.99;99945.48;214378;1274;140267;-64
2022/05/12 23:32:44;;;;;;;16.10;7.00;;;;;;;9.07;65.58;99948.50;215010;1274;139980;-64
2022/05/12 23:37:47;;;;;;;8.70;5.60;;;;;;;9.03;66.03;99947.77;214461;1274;231366;-62
2022/05/12 23:42:50;;;;;;;12.90;6.70;;;;;;;9.02;66.44;99947.80;214145;1274;141199;-62
2022/05/12 23:47:53;;;;;;;8.00;6.20;;;;;;;8.92;66.60;99953.63;214529;1274;141098;-62
2022/05/12 23:52:55;;;;;;;9.20;5.30;;;;;;;8.88;67.03;99954.84;213429;1274;142166;-61
2022/05/12 23:57:58;;;;;;;10.00;6.40;;;;;;;8.88;66.88;99954.02;213728;1274;141020;-65
